Time;durP1;ratioP1;P1;durP2;ratioP2;P2;SDS_P1;SDS_P2;PMS_P1;PMS_P2;Temp;Humidity;BMP_temperature;BMP_pressure;BME280_temperature;BME280_humidity;BME280_pressure;Samples;Min_cycle;Max_cycle;Signal;HPM_P1;HPM_P2
2023/08/19 00:01:31;;;;;;;27.92;19.55;;;;;;;20.88;100.00;100652.06;5222374;28;20138;-74
2023/08/19 00:04:02;;;;;;;25.75;17.95;;;;;;;20.87;100.00;100656.50;5237648;28;20024;-74
2023/08/19 00:06:34;;;;;;;31.17;19.90;;;;;;;20.81;100.00;100648.13;5240046;28;20028;-74
2023/08/19 00:09:08;;;;;;;34.92;19.58;;;;;;;20.76;100.00;100658.25;5237550;28;20040;-75
2023/08/19 00:11:39;;;;;;;26.98;18.83;;;;;;;20.79;100.00;100652.72;5240071;28;20025;-74
2023/08/19 00:14:10;;;;;;;27.27;18.67;;;;;;;20.76;100.00;100658.25;5237005;28;20021;-75
2023/08/19 00:16:40;;;;;;;29.02;19.55;;;;;;;20.73;100.00;100661.16;5239084;28;20048;-74
2023/08/19 00:19:11;;;;;;;29.45;18.92;;;;;;;20.67;100.00;100662.47;5236533;28;20086;-74
2023/08/19 00:21:41;;;;;;;27.52;19.70;;;;;;;20.66;100.00;100667.06;5238752;28;20394;-75
2023/08/19 00:24:12;;;;;;;24.52;17.55;;;;;;;20.68;100.00;100666.81;5218012;28;20024;-74
2023/08/19 00:26:42;;;;;;;29.15;18.88;;;;;;;20.73;100.00;100666.47;5238767;28;20047;-75
2023/08/19 00:29:13;;;;;;;27.35;19.40;;;;;;;20.77;100.00;100665.28;5235615;28;20025;-74
2023/08/19 00:31:43;;;;;;;36.42;20.75;;;;;;;20.75;100.00;100669.88;5238919;28;20016;-74
2023/08/19 00:34:13;;;;;;;25.83;17.73;;;;;;;20.80;100.00;100675.66;5237834;28;20037;-74
2023/08/19 00:36:44;;;;;;;32.17;18.33;;;;;;;20.80;100.00;100679.19;5238414;28;20383;-74
2023/08/19 00:39:14;;;;;;;31.48;19.92;;;;;;;20.81;100.00;100680.00;5237122;28;20328;-74
2023/08/19 00:41:45;;;;;;;25.27;17.30;;;;;;;20.86;100.00;100681.41;5237520;28;20113;-74
2023/08/19 00:44:15;;;;;;;30.23;18.17;;;;;;;20.84;100.00;100682.47;5226442;28;20025;-74
2023/08/19 00:46:46;;;;;;;28.48;17.55;;;;;;;20.81;100.00;100687.97;5233850;28;20032;-75
2023/08/19 00:49:16;;;;;;;25.80;18.83;;;;;;;20.80;100.00;100675.66;5216562;28;20048;-75
2023/08/19 00:51:46;;;;;;;26.92;17.80;;;;;;;20.77;100.00;100678.56;5238337;28;20086;-75
2023/08/19 00:54:17;;;;;;;23.75;17.02;;;;;;;20.73;100.00;100671.78;5233011;28;20032;-74
2023/08/19 00:56:47;;;;;;;25.45;17.85;;;;;;;20.72;100.00;100675.41;5240261;22;20036;-74
2023/08/19 00:59:18;;;;;;;27.05;18.80;;;;;;;20.67;100.00;100674.88;5217130;28;20029;-73
2023/08/19 01:01:48;;;;;;;25.80;18.17;;;;;;;20.70;100.00;100659.56;5238192;28;20393;-72
2023/08/19 01:04:19;;;;;;;21.10;15.48;;;;;;;20.72;100.00;100672.75;5237341;28;20028;-74
2023/08/19 01:07:07;;;;;;;24.75;17.38;;;;;;;20.69;100.00;100665.03;5237990;28;20039;-73
2023/08/19 01:10:03;;;;;;;26.77;19.10;;;;;;;20.69;100.00;100665.03;5236085;28;20066;-74
2023/08/19 01:12:59;;;;;;;29.15;19.30;;;;;;;20.80;100.00;100659.72;5234658;28;20025;-73
2023/08/19 01:15:34;;;;;;;26.92;19.42;;;;;;;20.65;100.00;100665.38;5230295;28;20048;-74
2023/08/19 01:18:07;;;;;;;27.45;18.90;;;;;;;20.70;100.00;100653.44;5235672;28;20032;-73
2023/08/19 01:20:39;;;;;;;26.00;18.02;;;;;;;20.66;100.00;100651.13;5236942;28;20024;-73
2023/08/19 01:23:16;;;;;;;24.75;17.83;;;;;;;20.67;100.00;100642.19;5215959;28;20474;-74
2023/08/19 01:25:47;;;;;;;25.45;17.67;;;;;;;20.61;100.00;100642.66;5220043;28;20033;-73
2023/08/19 01:28:21;;;;;;;24.73;17.63;;;;;;;20.58;100.00;100637.56;5217495;28;20413;-72
2023/08/19 01:30:51;;;;;;;25.88;18.60;;;;;;;20.56;100.00;100637.69;5236417;28;20640;-73
2023/08/19 01:33:22;;;;;;;24.98;18.40;;;;;;;20.50;100.00;100634.63;5235944;28;20063;-73
2023/08/19 01:36:05;;;;;;;28.38;18.50;;;;;;;20.56;100.00;100634.16;5217883;28;20612;-73
2023/08/19 01:38:56;;;;;;;29.65;18.88;;;;;;;20.60;100.00;100625.84;5234480;28;20024;-74
2023/08/19 01:41:29;;;;;;;24.70;17.58;;;;;;;20.64;100.00;100632.63;5236478;28;20020;-74
2023/08/19 01:44:01;;;;;;;30.65;19.27;;;;;;;20.64;100.00;100629.97;5236085;28;20451;-72
2023/08/19 01:46:32;;;;;;;26.25;19.67;;;;;;;20.70;100.00;100629.53;5235098;28;20032;-74
2023/08/19 01:49:02;;;;;;;26.17;18.80;;;;;;;20.75;100.00;100622.03;5233763;28;20035;-71
2023/08/19 01:51:33;;;;;;;23.92;17.48;;;;;;;20.79;100.00;100616.38;5220690;28;20414;-73
2023/08/19 01:54:03;;;;;;;27.25;19.13;;;;;;;20.79;100.00;100620.84;5234308;28;20028;-71
2023/08/19 01:56:34;;;;;;;22.77;17.25;;;;;;;20.74;100.00;100613.22;5236356;28;20065;-73
2023/08/19 01:59:04;;;;;;;23.45;17.73;;;;;;;20.69;100.00;100618.03;5234558;28;20020;-72
2023/08/19 02:01:34;;;;;;;26.55;18.70;;;;;;;20.65;100.00;100621.03;5220285;28;20556;-73
2023/08/19 02:04:05;;;;;;;23.40;16.52;;;;;;;20.61;100.00;100621.41;5216657;28;20027;-71
2023/08/19 02:06:35;;;;;;;24.52;16.90;;;;;;;20.56;100.00;100621.75;5237640;28;20111;-73
2023/08/19 02:09:05;;;;;;;26.10;17.80;;;;;;;20.47;100.00;100625.09;5216918;28;20485;-72
2023/08/19 02:11:36;;;;;;;28.10;19.48;;;;;;;20.50;100.00;100631.97;5218124;28;20024;-72
2023/08/19 02:14:06;;;;;;;27.38;18.20;;;;;;;20.51;100.00;100631.03;5216976;28;20246;-72
2023/08/19 02:16:37;;;;;;;24.42;16.23;;;;;;;20.49;100.00;100638.25;5235571;28;20520;-73
2023/08/19 02:19:07;;;;;;;26.35;17.17;;;;;;;20.39;100.00;100632.78;5231998;28;20040;-72
2023/08/19 02:21:37;;;;;;;27.02;17.67;;;;;;;20.37;100.00;100629.41;5236330;28;20024;-73
2023/08/19 02:24:08;;;;;;;26.90;18.13;;;;;;;20.36;100.00;100622.41;5215810;28;20067;-72
2023/08/19 02:26:38;;;;;;;22.60;16.92;;;;;;;20.32;100.00;100626.22;5237993;28;20107;-73
2023/08/19 02:29:08;;;;;;;25.52;17.42;;;;;;;20.29;100.00;100615.84;5233535;28;20025;-72
2023/08/19 02:31:39;;;;;;;25.58;18.85;;;;;;;20.22;100.00;100613.75;5238738;28;20070;-72
2023/08/19 02:34:09;;;;;;;27.08;18.33;;;;;;;20.20;100.00;100615.69;5237257;28;20029;-72
2023/08/19 02:36:39;;;;;;;24.45;17.70;;;;;;;20.18;100.00;100618.47;5240347;28;20445;-73
2023/08/19 02:39:09;;;;;;;23.40;17.52;;;;;;;20.16;100.00;100623.00;5237778;28;20094;-72
2023/08/19 02:41:40;;;;;;;26.40;19.42;;;;;;;20.17;100.00;100616.78;5242236;28;20382;-73
2023/08/19 02:44:10;;;;;;;28.05;18.83;;;;;;;20.12;100.00;100613.59;5218755;28;20530;-72
2023/08/19 02:46:40;;;;;;;25.77;19.55;;;;;;;20.13;100.00;100623.25;5240892;28;20036;-72
2023/08/19 02:49:11;;;;;;;24.52;17.25;;;;;;;20.05;100.00;100628.28;5236544;28;20025;-72
2023/08/19 02:51:41;;;;;;;22.30;16.20;;;;;;;19.97;100.00;100621.81;5219427;28;20328;-72
2023/08/19 02:54:13;;;;;;;28.15;17.55;;;;;;;19.93;100.00;100628.31;5239644;28;20028;-72
2023/08/19 02:56:43;;;;;;;24.15;17.83;;;;;;;19.92;100.00;100622.16;5222122;28;20024;-72
2023/08/19 02:59:13;;;;;;;24.42;17.27;;;;;;;19.99;100.00;100626.03;5239276;28;20574;-72
2023/08/19 03:01:44;;;;;;;26.08;17.02;;;;;;;20.04;100.00;100620.44;5223207;28;20110;-72
2023/08/19 03:04:14;;;;;;;19.73;14.77;;;;;;;19.99;100.00;100623.38;5240196;28;20154;-72
2023/08/19 03:06:45;;;;;;;24.20;16.38;;;;;;;19.96;100.00;100620.97;5218686;28;20024;-72
2023/08/19 03:09:15;;;;;;;26.10;18.40;;;;;;;19.85;100.00;100623.56;5237636;28;20043;-72
2023/08/19 03:11:45;;;;;;;28.05;17.98;;;;;;;19.80;100.00;100622.19;5241564;28;20511;-73
2023/08/19 03:14:16;;;;;;;23.20;17.05;;;;;;;19.85;100.00;100626.22;5238834;28;20155;-72
2023/08/19 03:16:46;;;;;;;22.15;16.10;;;;;;;19.83;100.00;100624.63;5239226;28;20492;-73
2023/08/19 03:19:16;;;;;;;22.10;16.20;;;;;;;19.91;100.00;100624.91;5237460;28;20174;-72
2023/08/19 03:21:48;;;;;;;27.63;19.05;;;;;;;19.88;100.00;100618.03;5240930;28;20028;-73
2023/08/19 03:24:18;;;;;;;29.95;20.02;;;;;;;19.89;100.00;100619.72;5219468;28;20024;-72
2023/08/19 03:26:49;;;;;;;27.45;19.23;;;;;;;19.91;100.00;100623.09;5238886;28;20029;-71
2023/08/19 03:29:19;;;;;;;31.38;22.73;;;;;;;19.94;100.00;100622.06;5239357;28;20036;-73
2023/08/19 03:31:49;;;;;;;30.77;21.75;;;;;;;20.02;100.00;100622.34;5240620;28;20082;-72
2023/08/19 03:34:19;;;;;;;32.50;20.88;;;;;;;19.90;100.00;100629.38;5237550;28;20028;-73
2023/08/19 03:36:50;;;;;;;30.67;20.80;;;;;;;19.86;100.00;100627.91;5237910;28;20104;-72
2023/08/19 03:39:20;;;;;;;32.35;21.30;;;;;;;19.82;100.00;100626.41;5239821;28;20393;-73
2023/08/19 03:41:50;;;;;;;25.38;18.20;;;;;;;19.77;100.00;100625.91;5237651;28;20029;-72
2023/08/19 03:44:21;;;;;;;31.27;19.30;;;;;;;19.70;100.00;100629.97;5219818;28;20107;-73
2023/08/19 03:46:51;;;;;;;34.90;19.35;;;;;;;19.63;100.00;100631.34;5240113;28;20031;-72
2023/08/19 03:49:21;;;;;;;29.38;19.13;;;;;;;19.65;100.00;100634.75;5220595;28;20123;-73
2023/08/19 03:51:51;;;;;;;25.58;18.15;;;;;;;19.69;100.00;100638.03;5219711;28;20024;-73
2023/08/19 03:54:22;;;;;;;27.33;18.42;;;;;;;19.73;100.00;100636.84;5220818;28;20029;-73
2023/08/19 03:56:52;;;;;;;29.45;18.83;;;;;;;19.74;100.00;100639.41;5219553;28;20055;-72
2023/08/19 03:59:22;;;;;;;28.23;18.77;;;;;;;19.76;100.00;100639.31;5239076;28;20428;-73
2023/08/19 04:01:53;;;;;;;30.10;20.17;;;;;;;19.70;100.00;100640.59;5239902;28;20028;-73
2023/08/19 04:04:23;;;;;;;29.10;19.45;;;;;;;19.66;100.00;100646.22;5238807;28;20029;-73
2023/08/19 04:06:53;;;;;;;34.03;21.50;;;;;;;19.66;100.00;100646.22;5237720;28;20222;-72
2023/08/19 04:09:24;;;;;;;32.63;22.23;;;;;;;19.70;100.00;100651.19;5238738;28;20111;-73
2023/08/19 04:11:55;;;;;;;33.72;22.42;;;;;;;19.76;100.00;100636.66;5238212;28;20024;-73
2023/08/19 04:14:25;;;;;;;31.13;21.35;;;;;;;19.75;100.00;100640.25;5221328;28;20021;-73
2023/08/19 04:16:55;;;;;;;27.65;18.88;;;;;;;19.77;100.00;100630.38;5221723;28;20448;-72
2023/08/19 04:19:25;;;;;;;27.98;19.20;;;;;;;19.70;100.00;100640.59;5239345;28;20024;-73
2023/08/19 04:21:56;;;;;;;29.55;20.25;;;;;;;19.60;100.00;100639.53;5237470;28;20052;-72
2023/08/19 04:24:26;;;;;;;31.25;20.65;;;;;;;19.62;100.00;100632.31;5237527;28;20021;-72
2023/08/19 04:26:56;;;;;;;28.63;19.17;;;;;;;19.68;100.00;100639.00;5220553;28;20694;-72
2023/08/19 04:29:27;;;;;;;28.20;19.30;;;;;;;19.69;100.00;100635.38;5236189;28;20028;-73
2023/08/19 04:31:59;;;;;;;28.63;19.77;;;;;;;19.65;100.00;100642.69;5220537;28;20147;-73
2023/08/19 04:34:30;;;;;;;30.02;17.95;;;;;;;19.61;100.00;100641.22;5220379;28;20541;-73
2023/08/19 04:37:00;;;;;;;27.50;19.40;;;;;;;19.67;100.00;100645.25;5237669;28;20120;-72
2023/08/19 04:39:31;;;;;;;29.30;21.05;;;;;;;19.77;100.00;100651.59;5220181;28;20028;-73
2023/08/19 04:42:01;;;;;;;32.50;22.10;;;;;;;19.87;100.00;100640.22;5238448;28;20111;-72
2023/08/19 04:44:31;;;;;;;32.45;22.90;;;;;;;19.86;100.00;100651.78;5238264;28;20025;-73
2023/08/19 04:47:03;;;;;;;36.95;23.80;;;;;;;20.03;100.00;100655.88;5219195;28;20432;-72
2023/08/19 04:49:34;;;;;;;36.67;24.10;;;;;;;20.31;100.00;100648.44;5219562;28;20052;-73
2023/08/19 04:52:04;;;;;;;37.50;25.73;;;;;;;20.41;100.00;100653.91;5219651;28;20052;-72
2023/08/19 04:54:35;;;;;;;41.17;24.88;;;;;;;20.43;100.00;100652.00;5238406;28;20020;-73
2023/08/19 04:57:05;;;;;;;42.60;25.58;;;;;;;20.56;100.00;100664.25;5235613;28;20036;-72
2023/08/19 04:59:35;;;;;;;40.13;24.40;;;;;;;20.58;100.00;100664.97;5237744;28;20050;-73
2023/08/19 05:02:07;;;;;;;35.30;24.05;;;;;;;20.70;100.00;100666.72;5219686;28;20052;-72
2023/08/19 05:04:37;;;;;;;32.83;22.83;;;;;;;20.87;100.00;100674.28;5236402;28;20028;-73
2023/08/19 05:07:07;;;;;;;32.15;22.85;;;;;;;21.11;100.00;100683.03;5220423;28;20444;-72
2023/08/19 05:09:38;;;;;;;34.75;22.90;;;;;;;21.48;100.00;100681.84;5219864;28;20027;-72
2023/08/19 05:12:08;;;;;;;31.20;21.05;;;;;;;22.34;100.00;100673.91;5237154;28;20055;-73
2023/08/19 05:14:38;;;;;;;24.42;16.92;;;;;;;23.77;100.00;100673.03;5236997;28;20701;-72
2023/08/19 05:17:09;;;;;;;23.50;16.33;;;;;;;25.35;100.00;100668.09;5235021;28;20024;-73
2023/08/19 05:19:39;;;;;;;21.00;14.25;;;;;;;25.93;96.11;100674.91;5236145;28;20270;-73
2023/08/19 05:22:09;;;;;;;17.10;11.65;;;;;;;26.65;93.18;100679.25;5220369;28;20040;-73
2023/08/19 05:24:40;;;;;;;16.73;11.27;;;;;;;26.64;91.46;100687.44;5235909;28;20024;-73
2023/08/19 05:27:10;;;;;;;11.13;8.80;;;;;;;27.54;93.37;100677.09;5236365;28;20283;-72
2023/08/19 05:29:40;;;;;;;19.80;12.57;;;;;;;28.08;84.89;100682.03;5220204;28;20024;-73
2023/08/19 05:32:10;;;;;;;14.73;10.60;;;;;;;28.57;84.23;100678.50;5237867;28;20369;-73
2023/08/19 05:34:41;;;;;;;15.33;10.90;;;;;;;29.46;81.10;100677.44;5237867;28;20289;-73
2023/08/19 05:37:11;;;;;;;14.32;9.88;;;;;;;29.91;78.68;100680.38;5219338;28;20782;-72
2023/08/19 05:39:41;;;;;;;14.20;10.73;;;;;;;30.19;75.15;100678.88;5236986;28;20024;-73
2023/08/19 05:42:12;;;;;;;17.00;10.40;;;;;;;30.92;77.19;100679.09;5234984;28;20029;-73
2023/08/19 05:44:42;;;;;;;13.68;10.38;;;;;;;31.37;76.17;100676.28;5236268;28;20748;-72
2023/08/19 05:47:14;;;;;;;14.73;11.77;;;;;;;30.66;76.17;100687.72;5216895;28;20036;-72
2023/08/19 05:49:44;;;;;;;14.55;10.88;;;;;;;30.76;75.33;100677.53;5234465;28;20471;-73
2023/08/19 05:52:14;;;;;;;16.48;11.63;;;;;;;31.38;74.48;100683.38;5215928;28;20020;-73
2023/08/19 05:54:44;;;;;;;13.67;9.57;;;;;;;31.27;73.76;100680.28;5233203;28;20067;-73
2023/08/19 05:57:15;;;;;;;13.27;10.10;;;;;;;31.05;76.49;100686.56;5233353;28;20402;-73
2023/08/19 05:59:45;;;;;;;15.45;11.05;;;;;;;29.02;83.90;100687.78;5217761;28;20282;-72
2023/08/19 06:02:15;;;;;;;20.47;13.70;;;;;;;27.20;93.03;100689.63;5235283;28;20110;-72
2023/08/19 06:04:46;;;;;;;14.40;11.07;;;;;;;26.65;96.20;100691.81;5214909;28;20297;-72
2023/08/19 06:07:22;;;;;;;19.33;13.75;;;;;;;25.57;100.00;100690.00;5217227;28;20062;-72
2023/08/19 06:09:52;;;;;;;20.45;14.50;;;;;;;25.11;100.00;100681.94;5218168;28;20028;-72
2023/08/19 06:12:22;;;;;;;18.42;14.70;;;;;;;24.74;100.00;100686.34;5217042;28;20405;-72
2023/08/19 06:14:53;;;;;;;20.20;13.77;;;;;;;24.74;100.00;100682.81;5218604;28;20032;-72
2023/08/19 06:17:24;;;;;;;20.33;13.77;;;;;;;24.70;100.00;100686.75;5234990;28;20890;-71
2023/08/19 06:19:54;;;;;;;19.48;14.60;;;;;;;24.58;100.00;100687.88;5234204;28;20397;-72
2023/08/19 06:22:24;;;;;;;21.90;14.40;;;;;;;24.61;100.00;100697.47;5236791;28;20260;-73
2023/08/19 06:24:54;;;;;;;21.40;15.20;;;;;;;24.84;100.00;100691.69;5216857;28;20283;-72
2023/08/19 06:27:25;;;;;;;18.83;14.13;;;;;;;25.06;100.00;100686.88;5219209;28;20251;-71
2023/08/19 06:29:55;;;;;;;16.70;12.90;;;;;;;25.47;100.00;100685.69;5217666;28;20282;-72
2023/08/19 06:32:26;;;;;;;18.77;12.20;;;;;;;26.64;100.00;100688.28;5233054;28;20044;-74
2023/08/19 06:34:56;;;;;;;13.43;10.10;;;;;;;28.23;98.79;100684.94;5234700;28;20073;-72
2023/08/19 06:37:41;;;;;;;12.68;9.02;;;;;;;28.92;91.04;100686.28;5236546;28;20034;-73
2023/08/19 06:40:12;;;;;;;13.10;8.93;;;;;;;29.74;86.97;100689.53;5230762;28;20053;-73
2023/08/19 06:42:44;;;;;;;11.73;7.85;;;;;;;30.31;83.51;100691.81;5233005;28;20025;-73
2023/08/19 06:45:16;;;;;;;11.52;7.43;;;;;;;30.43;81.19;100692.25;5232725;28;20059;-73
2023/08/19 06:47:51;;;;;;;10.15;7.32;;;;;;;30.88;80.75;100693.94;5218856;28;20455;-74
2023/08/19 06:50:22;;;;;;;9.53;7.27;;;;;;;31.71;76.93;100692.84;5232269;28;20032;-73
2023/08/19 06:52:52;;;;;;;9.20;6.55;;;;;;;31.75;76.63;100685.19;5216995;28;20352;-73
2023/08/19 06:55:23;;;;;;;10.38;6.60;;;;;;;31.92;74.09;100683.97;5218884;28;20408;-73
2023/08/19 06:58:03;;;;;;;8.10;6.80;;;;;;;32.53;72.85;100687.03;5286567;22;20469;-74
2023/08/19 07:00:35;;;;;;;8.95;6.47;;;;;;;32.94;72.75;100685.38;5276683;28;20035;-72
2023/08/19 07:03:06;;;;;;;9.75;6.50;;;;;;;33.56;70.21;100689.00;5280838;28;20024;-73
2023/08/19 07:05:36;;;;;;;8.75;6.47;;;;;;;33.08;70.80;100695.28;5274309;28;20454;-74
2023/08/19 07:08:10;;;;;;;9.15;5.53;;;;;;;34.03;69.34;100686.38;5261762;28;20041;-74
2023/08/19 07:10:41;;;;;;;7.80;6.05;;;;;;;34.45;68.61;100691.53;5257025;28;20020;-74
2023/08/19 07:13:11;;;;;;;7.40;6.03;;;;;;;33.38;69.90;100694.09;5259579;28;20093;-74
2023/08/19 07:15:48;;;;;;;9.60;5.68;;;;;;;33.62;69.17;100694.47;5258505;28;20031;-74
2023/08/19 07:18:20;;;;;;;8.93;5.88;;;;;;;34.46;67.75;100698.66;5265258;28;20055;-72
2023/08/19 07:20:51;;;;;;;8.00;5.88;;;;;;;34.88;66.89;100685.59;5257703;28;20044;-73
2023/08/19 07:23:23;;;;;;;8.18;5.20;;;;;;;35.42;64.81;100694.41;5261093;28;20115;-74
2023/08/19 07:25:54;;;;;;;5.95;4.97;;;;;;;35.69;66.19;100694.16;5261323;28;20040;-74
2023/08/19 07:28:25;;;;;;;7.40;5.10;;;;;;;36.01;63.83;100695.97;5261397;28;20082;-73
2023/08/19 07:30:55;;;;;;;6.03;5.13;;;;;;;35.79;63.94;100689.09;5261993;28;20036;-74
2023/08/19 07:33:26;;;;;;;7.55;5.28;;;;;;;35.43;65.31;100699.63;5257819;28;20020;-73
2023/08/19 07:35:56;;;;;;;8.33;4.80;;;;;;;36.39;62.68;100688.69;5256270;28;20078;-74
2023/08/19 07:38:26;;;;;;;6.07;4.97;;;;;;;35.85;63.80;100692.84;5261281;28;20770;-74
2023/08/19 07:40:57;;;;;;;7.72;5.28;;;;;;;35.98;62.76;100699.09;5256024;28;20437;-74
2023/08/19 07:43:27;;;;;;;6.43;4.35;;;;;;;36.26;63.88;100696.91;5258142;28;20032;-73
2023/08/19 07:45:57;;;;;;;8.07;4.97;;;;;;;36.92;61.68;100690.03;5256572;28;20035;-73
2023/08/19 07:48:28;;;;;;;6.00;4.87;;;;;;;36.10;62.73;100694.69;5255431;27;20093;-73
2023/08/19 07:50:58;;;;;;;5.85;4.75;;;;;;;35.76;64.17;100689.53;5255681;28;20430;-73
2023/08/19 07:53:29;;;;;;;11.07;4.80;;;;;;;35.65;63.20;100687.47;5256089;28;20524;-73
2023/08/19 07:55:59;;;;;;;7.20;4.70;;;;;;;35.41;65.44;100681.84;5255374;28;20286;-73
2023/08/19 07:58:29;;;;;;;5.65;4.60;;;;;;;36.42;62.27;100677.34;5255519;28;20484;-71
2023/08/19 08:01:00;;;;;;;5.93;4.53;;;;;;;35.90;62.09;100685.72;5255372;28;20051;-73
2023/08/19 08:03:30;;;;;;;6.53;4.20;;;;;;;36.28;63.65;100677.63;5257766;28;20080;-73
2023/08/19 08:06:00;;;;;;;4.68;3.67;;;;;;;35.63;63.80;100686.84;5257722;28;20494;-73
2023/08/19 08:08:31;;;;;;;5.17;4.20;;;;;;;36.52;61.41;100691.34;5256707;28;20505;-73
2023/08/19 08:11:02;;;;;;;4.85;3.95;;;;;;;36.71;60.36;100687.66;5256078;28;20050;-74
2023/08/19 08:13:32;;;;;;;4.85;3.88;;;;;;;37.53;60.48;100680.06;5257116;28;20036;-73
2023/08/19 08:16:02;;;;;;;5.07;4.30;;;;;;;37.17;60.98;100677.25;5256679;28;20702;-73
2023/08/19 08:18:33;;;;;;;6.53;3.80;;;;;;;36.74;61.71;100692.69;5253588;28;20616;-74
2023/08/19 08:21:03;;;;;;;6.80;3.97;;;;;;;36.76;61.22;100679.66;5257120;28;20089;-71
2023/08/19 08:23:34;;;;;;;6.13;3.60;;;;;;;35.86;62.95;100679.03;5257705;28;20016;-73
2023/08/19 08:26:05;;;;;;;4.80;3.77;;;;;;;36.99;60.82;100677.16;5253876;28;20039;-71
2023/08/19 08:28:36;;;;;;;6.30;3.75;;;;;;;36.58;61.10;100676.84;5250126;28;20024;-73
2023/08/19 08:31:06;;;;;;;5.93;3.80;;;;;;;36.71;61.20;100665.88;5256831;28;20051;-73
2023/08/19 08:33:37;;;;;;;5.60;3.58;;;;;;;37.11;62.21;100675.41;5251778;28;20025;-73
2023/08/19 08:36:08;;;;;;;4.20;3.57;;;;;;;36.47;60.89;100672.06;5252072;28;20039;-73
2023/08/19 08:38:38;;;;;;;4.82;3.20;;;;;;;38.11;59.39;100681.31;5251071;28;20773;-74
2023/08/19 08:41:09;;;;;;;5.45;3.85;;;;;;;36.96;61.09;100676.78;5255876;28;20048;-73
2023/08/19 08:43:40;;;;;;;4.20;3.50;;;;;;;37.60;60.19;100675.38;5253550;28;20063;-73
2023/08/19 08:46:12;;;;;;;4.53;3.33;;;;;;;37.30;60.47;100683.44;5253642;28;20085;-73
2023/08/19 08:48:44;;;;;;;5.47;3.95;;;;;;;37.09;58.92;100677.53;5251443;28;20032;-73
2023/08/19 08:51:16;;;;;;;6.75;3.78;;;;;;;36.95;59.69;100686.84;5252175;28;20020;-72
2023/08/19 08:53:48;;;;;;;4.85;3.75;;;;;;;37.25;59.01;100685.16;5250554;28;20078;-73
2023/08/19 08:56:19;;;;;;;4.65;3.60;;;;;;;37.42;58.77;100684.34;5259161;28;20031;-71
2023/08/19 08:58:49;;;;;;;7.55;3.45;;;;;;;37.36;60.49;100674.34;5256427;28;20077;-71
2023/08/19 09:01:22;;;;;;;5.07;3.65;;;;;;;36.49;60.60;100686.28;5255737;28;20055;-71
2023/08/19 09:04:00;;;;;;;4.25;3.60;;;;;;;36.73;61.17;100677.38;5253832;28;20020;-73
2023/08/19 09:06:32;;;;;;;5.00;3.67;;;;;;;36.12;62.58;100678.13;5255033;28;20097;-73
2023/08/19 09:09:04;;;;;;;5.57;3.72;;;;;;;36.55;60.97;100682.75;5254054;28;20966;-73
2023/08/19 09:11:38;;;;;;;4.72;3.28;;;;;;;36.88;61.20;100680.63;5256133;28;20020;-73
2023/08/19 09:14:28;;;;;;;4.15;3.33;;;;;;;36.26;61.61;100679.72;5261193;28;20045;-72
2023/08/19 09:16:58;;;;;;;5.07;3.72;;;;;;;36.03;62.62;100666.63;5257201;27;20020;-73
2023/08/19 09:19:28;;;;;;;6.30;3.53;;;;;;;35.04;64.63;100675.16;5256071;28;20012;-72
2023/08/19 09:22:28;;;;;;;6.00;3.67;;;;;;;34.67;64.47;100665.91;5258031;28;20331;-72
2023/08/19 09:24:58;;;;;;;6.05;4.20;;;;;;;33.65;66.95;100671.53;5256989;28;20036;-72
2023/08/19 09:27:31;;;;;;;5.53;3.83;;;;;;;33.57;68.42;100672.53;5256218;28;20378;-73
2023/08/19 09:30:01;;;;;;;5.45;4.05;;;;;;;33.39;71.46;100669.50;5256131;28;20332;-72
2023/08/19 09:32:35;;;;;;;6.65;3.80;;;;;;;32.97;70.07;100672.25;5255444;28;20165;-73
2023/08/19 09:35:06;;;;;;;20.73;10.43;;;;;;;33.42;69.83;100671.81;5258119;28;20024;-71
2023/08/19 09:37:37;;;;;;;11.98;8.40;;;;;;;33.87;67.31;100671.25;5252978;28;20394;-73
2023/08/19 09:40:15;;;;;;;7.22;4.22;;;;;;;33.27;67.39;100662.94;5255921;28;20055;-72
2023/08/19 09:42:49;;;;;;;7.53;4.40;;;;;;;32.98;69.51;100667.69;5253310;28;20024;-71
2023/08/19 09:45:22;;;;;;;5.50;3.53;;;;;;;32.92;68.43;100658.47;5260774;28;20509;-70
2023/08/19 09:47:53;;;;;;;5.70;3.80;;;;;;;33.01;70.16;100661.88;5263423;28;20028;-72
2023/08/19 09:50:24;;;;;;;4.60;3.30;;;;;;;33.16;70.90;100651.78;5260221;28;20035;-72
2023/08/19 09:52:56;;;;;;;5.53;3.40;;;;;;;33.01;68.98;100651.03;5260197;28;20031;-72
2023/08/19 09:55:32;;;;;;;4.70;3.67;;;;;;;32.17;70.81;100653.72;5238990;28;20064;-71
2023/08/19 09:58:02;;;;;;;5.28;3.60;;;;;;;31.93;73.00;100654.03;5260566;28;20557;-72
2023/08/19 10:00:32;;;;;;;5.97;3.80;;;;;;;32.45;71.89;100646.56;5262426;28;20168;-72
2023/08/19 10:03:04;;;;;;;5.53;3.67;;;;;;;32.97;72.84;100645.16;5259327;28;20035;-73
2023/08/19 10:05:39;;;;;;;5.32;3.47;;;;;;;32.92;72.42;100645.97;5253687;28;20028;-72
2023/08/19 10:08:32;;;;;;;4.28;3.22;;;;;;;32.48;70.08;100648.88;5256326;28;20218;-73
2023/08/19 10:11:03;;;;;;;4.35;3.47;;;;;;;32.26;70.45;100652.59;5259645;28;20043;-72
2023/08/19 10:13:34;;;;;;;4.97;3.30;;;;;;;32.50;72.10;100644.09;5257190;28;20062;-72
2023/08/19 10:16:05;;;;;;;5.80;3.22;;;;;;;32.33;70.24;100653.50;5257982;28;20126;-71
2023/08/19 10:18:41;;;;;;;4.50;3.50;;;;;;;32.11;71.00;100651.75;5252192;28;20016;-73
2023/08/19 10:21:14;;;;;;;5.18;3.67;;;;;;;32.59;73.20;100651.03;5251507;28;20036;-72
2023/08/19 10:23:46;;;;;;;7.55;3.83;;;;;;;32.63;71.91;100646.09;5256418;28;20675;-73
2023/08/19 10:26:17;;;;;;;11.32;3.88;;;;;;;32.19;72.48;100653.56;5257613;28;20844;-71
2023/08/19 10:29:05;;;;;;;6.72;3.60;;;;;;;32.05;73.27;100652.50;5252422;28;20370;-70
2023/08/19 10:31:35;;;;;;;9.60;5.63;;;;;;;31.40;73.47;100657.00;5254688;28;20084;-72
2023/08/19 10:34:11;;;;;;;5.93;3.75;;;;;;;31.82;74.45;100649.09;5251891;28;20032;-70
2023/08/19 10:36:41;;;;;;;5.60;2.75;;;;;;;31.73;72.72;100652.09;5258602;28;20392;-72
2023/08/19 10:39:16;;;;;;;5.37;3.43;;;;;;;31.87;71.89;100646.66;5256382;28;20036;-75
2023/08/19 10:41:49;;;;;;;4.32;2.92;;;;;;;31.93;70.81;100648.63;5264391;28;20549;-72
2023/08/19 10:44:27;;;;;;;6.13;2.78;;;;;;;32.12;71.18;100648.03;5266518;28;20027;-71
2023/08/19 10:47:14;;;;;;;3.60;2.67;;;;;;;32.10;69.56;100644.69;5258401;28;20515;-72
2023/08/19 10:49:46;;;;;;;3.58;2.85;;;;;;;32.25;68.41;100642.78;5260685;28;20027;-72
2023/08/19 10:52:20;;;;;;;4.45;2.80;;;;;;;32.30;70.24;100645.75;5265689;28;20074;-71
2023/08/19 10:54:51;;;;;;;6.30;2.80;;;;;;;32.28;68.48;100631.59;5264341;28;20047;-72
2023/08/19 10:57:23;;;;;;;5.22;2.88;;;;;;;32.18;67.97;100636.47;5265658;27;20035;-71
2023/08/19 10:59:58;;;;;;;4.18;3.08;;;;;;;32.42;68.74;100641.50;5263507;28;20340;-70
2023/08/19 11:02:30;;;;;;;5.70;2.92;;;;;;;32.22;68.46;100640.44;5263824;28;20036;-72
2023/08/19 11:05:03;;;;;;;5.93;2.83;;;;;;;32.06;70.43;100632.53;5263578;28;20093;-72
2023/08/19 11:07:33;;;;;;;6.28;3.30;;;;;;;32.24;71.73;100624.84;5260266;28;20036;-71
2023/08/19 11:10:04;;;;;;;5.40;2.70;;;;;;;31.90;72.45;100627.34;5261874;28;20028;-72
2023/08/19 11:12:35;;;;;;;4.68;2.95;;;;;;;31.62;69.93;100625.50;5258888;28;20416;-72
2023/08/19 11:15:06;;;;;;;4.07;2.47;;;;;;;31.83;68.43;100626.44;5258824;28;20032;-72
2023/08/19 11:17:36;;;;;;;4.43;2.75;;;;;;;31.84;69.66;100625.41;5258530;28;20028;-75
2023/08/19 11:20:12;;;;;;;3.67;2.60;;;;;;;31.95;68.12;100630.34;5265848;27;20035;-74
2023/08/19 11:22:49;;;;;;;4.93;2.65;;;;;;;31.74;70.29;100627.56;5270607;27;20032;-72
2023/08/19 11:25:19;;;;;;;5.95;3.10;;;;;;;31.96;69.89;100623.91;5257826;28;20092;-71
2023/08/19 11:27:50;;;;;;;3.80;2.22;;;;;;;31.92;68.13;100625.31;5265871;28;20250;-72
2023/08/19 11:30:20;;;;;;;5.60;2.53;;;;;;;31.92;68.31;100624.47;5266592;28;20052;-71
2023/08/19 11:32:51;;;;;;;5.45;2.45;;;;;;;32.04;68.94;100629.19;5265735;28;20039;-72